Eldridge, Iowa
Current Conditions -  °F | °C
As of 4:52 AM on Saturday 25 Oct 2014 (Local Time) from KDVN Reporting Station
Moderate Fog Moderate Fog  
Wind Chill: 54°   Ceiling: 200
Heat Index: 54°   Visibility: 0.25mi
Dew Point: 52°   Wind: 8mph
Humidity: 93%   Direction: 300°WNW
Pressure: 29.95"   Gusts: NA
Location:  41.66°N, 90.58°W
Report Text: KDVN 250952Z AUTO 30007KT 1/4SM FG VV002 12/11 A2995 RMK AO2 SLP140 T01220111 TSNO
Loading
Personal Weather Stations






























Interactive Weather Map
Tropical Storm Tracking
New forecast layout! Learn more

10-Day Weather Forecast

Advertisements
Track Severe Weather on mobile